Time;durP1;ratioP1;P1;durP2;ratioP2;P2;SDS_P1;SDS_P2;PMS_P1;PMS_P2;Temp;Humidity;BMP_temperature;BMP_pressure;BME280_temperature;BME280_humidity;BME280_pressure;Samples;Min_cycle;Max_cycle;Signal;HPM_P1;HPM_P2
2022/12/26 00:03:17;;;;;;;3.30;2.83;;;;;;;15.74;49.59;98721.66;7088652;27;20653;-78
2022/12/26 00:06:40;;;;;;;3.47;2.90;;;;;;;15.72;49.45;98696.63;7087296;27;20287;-78
2022/12/26 00:10:02;;;;;;;3.40;3.10;;;;;;;15.86;49.33;98718.94;7112811;27;20332;-78
2022/12/26 00:13:24;;;;;;;3.43;3.13;;;;;;;15.63;49.86;98716.28;7116850;27;20343;-78
2022/12/26 00:16:46;;;;;;;3.30;3.00;;;;;;;15.71;49.43;98713.16;7115728;27;20203;-78
2022/12/26 00:20:08;;;;;;;3.60;2.70;;;;;;;15.63;49.84;98713.56;7116348;27;20255;-78
2022/12/26 00:23:32;;;;;;;3.43;2.80;;;;;;;15.75;49.22;98717.06;7116408;27;20286;-78
2022/12/26 00:26:54;;;;;;;2.97;2.73;;;;;;;15.80;49.70;98720.72;7115238;27;20267;-78
2022/12/26 00:30:16;;;;;;;2.90;2.70;;;;;;;15.97;49.20;98720.78;7115079;27;20715;-78
2022/12/26 00:33:38;;;;;;;3.40;2.80;;;;;;;15.62;49.94;98725.50;7115096;27;20314;-78
2022/12/26 00:36:59;;;;;;;5.97;2.97;;;;;;;15.79;49.34;98724.50;7114467;27;20205;-78
2022/12/26 00:40:22;;;;;;;2.97;2.77;;;;;;;15.88;49.16;98744.81;7115398;27;20227;-78
2022/12/26 00:43:44;;;;;;;3.37;2.80;;;;;;;16.00;48.81;98747.50;7115757;27;20241;-78
2022/12/26 00:47:05;;;;;;;2.90;2.70;;;;;;;15.94;49.13;98740.31;7114521;27;20213;-78
2022/12/26 00:50:27;;;;;;;2.70;2.50;;;;;;;15.99;49.23;98732.25;7115229;27;20311;-78
2022/12/26 00:53:48;;;;;;;3.10;2.80;;;;;;;15.96;49.14;98733.56;7114604;27;20318;-79
2022/12/26 00:57:11;;;;;;;3.00;2.70;;;;;;;16.40;47.95;98729.28;7116691;27;20200;-78
2022/12/26 01:00:33;;;;;;;3.33;2.73;;;;;;;15.95;48.38;98702.00;7117713;27;20701;-78
2022/12/26 01:03:54;;;;;;;2.97;2.70;;;;;;;16.42;47.50;98706.19;7121032;27;20698;-78
2022/12/26 01:07:15;;;;;;;3.30;2.93;;;;;;;16.40;47.76;98724.66;7121885;27;20253;-79
2022/12/26 01:10:40;;;;;;;3.30;3.00;;;;;;;16.72;47.07;98735.84;7122854;27;20731;-78
2022/12/26 01:14:03;;;;;;;3.73;2.87;;;;;;;16.54;47.27;98706.13;7122304;27;20308;-79
2022/12/26 01:17:25;;;;;;;5.33;2.97;;;;;;;16.43;47.51;98724.19;7121578;27;20286;-79
2022/12/26 01:20:46;;;;;;;2.80;2.60;;;;;;;16.92;46.63;98720.69;7092996;27;20314;-79
2022/12/26 01:24:08;;;;;;;3.10;2.90;;;;;;;16.91;46.25;98716.31;7092867;27;20292;-78
2022/12/26 01:27:30;;;;;;;3.70;2.73;;;;;;;16.79;46.83;98712.00;7091918;27;20200;-78
2022/12/26 01:30:53;;;;;;;3.00;2.40;;;;;;;16.97;46.50;98733.53;7092154;27;20751;-78
2022/12/26 01:34:14;;;;;;;3.47;2.53;;;;;;;15.96;47.47;98672.91;7092379;27;20224;-78
2022/12/26 01:37:36;;;;;;;3.97;2.90;;;;;;;16.71;46.87;98739.66;7092162;27;20686;-79
2022/12/26 01:44:55;;;;;;;3.20;2.90;;;;;;;16.83;46.31;98738.50;7092126;27;20673;-78
2022/12/26 01:48:20;;;;;;;3.43;2.97;;;;;;;16.93;46.57;98738.66;7092154;27;20291;-78
2022/12/26 01:51:44;;;;;;;2.80;2.60;;;;;;;16.87;46.82;98747.81;7091705;27;20642;-78
2022/12/26 01:55:08;;;;;;;2.97;2.67;;;;;;;16.60;47.10;98741.38;7091022;27;20236;-78
2022/12/26 01:58:32;;;;;;;2.93;2.73;;;;;;;16.86;46.95;98748.09;7091387;27;20296;-79
2022/12/26 02:01:54;;;;;;;3.80;2.87;;;;;;;16.51;47.40;98731.94;7091742;27;20229;-78
2022/12/26 02:05:35;;;;;;;3.20;2.90;;;;;;;16.85;47.24;98751.84;7090961;27;20261;-79
2022/12/26 02:08:56;;;;;;;3.13;2.83;;;;;;;16.77;46.81;98727.78;7094645;27;20652;-78
2022/12/26 02:12:21;;;;;;;5.77;3.33;;;;;;;16.66;47.62;98736.81;7091367;27;20238;-78
2022/12/26 02:15:42;;;;;;;3.00;2.30;;;;;;;16.58;47.82;98742.69;7089129;27;20225;-78
2022/12/26 02:19:06;;;;;;;3.80;2.77;;;;;;;16.60;47.61;98724.19;7091217;27;20342;-78
2022/12/26 02:23:08;;;;;;;3.10;2.80;;;;;;;16.83;46.96;98733.06;7090839;27;20336;-79
2022/12/26 02:26:58;;;;;;;3.20;2.87;;;;;;;16.87;47.09;98730.69;7090530;27;20266;-78
2022/12/26 02:30:43;;;;;;;2.80;2.60;;;;;;;16.70;47.57;98736.09;7090148;27;20319;-78
2022/12/26 02:34:09;;;;;;;3.67;3.00;;;;;;;16.92;46.97;98725.31;7104964;27;20307;-79
2022/12/26 02:37:41;;;;;;;3.17;2.63;;;;;;;17.11;46.45;98726.72;7118035;27;20189;-78
2022/12/26 02:41:15;;;;;;;2.50;2.30;;;;;;;16.92;46.73;98714.44;7119562;27;20259;-78
2022/12/26 02:48:30;;;;;;;2.60;2.40;;;;;;;16.71;47.24;98736.94;7112513;27;20608;-78
2022/12/26 03:14:17;;;;;;;3.07;2.70;;;;;;;16.57;47.82;98750.00;7117700;27;20638;-78
2022/12/26 03:17:40;;;;;;;2.87;2.67;;;;;;;16.88;47.29;98749.47;7117110;27;20352;-78
2022/12/26 03:21:02;;;;;;;2.97;2.50;;;;;;;16.42;48.03;98730.69;7116958;27;20229;-78
2022/12/26 03:26:38;;;;;;;3.30;3.00;;;;;;;16.85;47.50;98744.53;7117427;27;20343;-78
2022/12/26 03:28:06;;;;;;;3.10;2.80;;;;;;;16.69;47.80;98730.91;7117500;27;20328;-78
2022/12/26 03:31:27;;;;;;;3.33;3.03;;;;;;;16.68;47.92;98731.97;7117231;27;20228;-78
2022/12/26 03:34:49;;;;;;;3.33;2.90;;;;;;;16.78;47.41;98729.41;7117641;27;20701;-78
2022/12/26 03:38:13;;;;;;;2.90;2.70;;;;;;;16.47;48.03;98728.06;7117657;27;20260;-78
2022/12/26 04:19:26;;;;;;;2.67;2.47;;;;;;;16.80;47.49;98730.03;7118031;27;20220;-78
2022/12/26 04:45:00;;;;;;;2.80;2.60;;;;;;;16.63;47.68;98764.56;7114820;27;20185;-79
2022/12/26 04:52:17;;;;;;;2.67;2.47;;;;;;;16.89;47.38;98740.25;7027144;28;20199;-79
2022/12/26 04:55:38;;;;;;;2.77;2.47;;;;;;;16.88;47.12;98740.50;7037875;27;20253;-79
2022/12/26 04:59:00;;;;;;;3.10;2.77;;;;;;;16.97;47.40;98739.00;7115875;27;20674;-79
2022/12/26 05:09:41;;;;;;;3.20;2.97;;;;;;;16.77;47.34;98739.50;7113824;27;20273;-76
2022/12/26 05:13:02;;;;;;;3.93;3.50;;;;;;;16.89;47.25;98748.41;7113759;27;20628;-77
2022/12/26 05:31:01;;;;;;;4.80;2.50;;;;;;;16.79;47.56;98750.97;7050294;27;20226;-77
2022/12/26 05:34:22;;;;;;;2.80;2.60;;;;;;;16.81;47.30;98720.78;7085127;27;20221;-77
2022/12/26 05:37:44;;;;;;;3.27;2.53;;;;;;;17.04;46.62;98740.47;7084800;27;20278;-77
2022/12/26 05:41:06;;;;;;;4.40;3.40;;;;;;;16.98;46.97;98725.13;7084620;27;20752;-77
2022/12/26 05:44:28;;;;;;;4.20;3.10;;;;;;;16.98;46.85;98736.03;7085282;27;20714;-76
2022/12/26 05:47:49;;;;;;;3.37;2.70;;;;;;;16.72;47.48;98755.75;7084572;27;20201;-76
2022/12/26 05:51:11;;;;;;;3.23;2.73;;;;;;;16.98;47.03;98748.84;7090280;27;20220;-77
2022/12/26 05:54:32;;;;;;;2.87;2.67;;;;;;;16.85;47.50;98740.97;7090182;27;20322;-77
2022/12/26 05:57:56;;;;;;;3.60;2.80;;;;;;;16.87;47.24;98749.75;7089303;27;20759;-77
2022/12/26 06:01:19;;;;;;;3.17;2.60;;;;;;;16.97;47.23;98749.88;7090010;27;20250;-77
2022/12/26 06:04:41;;;;;;;2.60;2.40;;;;;;;16.87;47.19;98749.75;7094388;27;20205;-79
2022/12/26 06:08:02;;;;;;;2.93;2.63;;;;;;;16.83;47.44;98764.91;7094808;27;20201;-79
2022/12/26 06:11:25;;;;;;;3.03;2.83;;;;;;;16.72;47.53;98739.41;7095305;27;20289;-79
2022/12/26 06:14:48;;;;;;;3.57;2.90;;;;;;;16.77;47.34;98753.13;7091392;27;20319;-79
2022/12/26 06:18:09;;;;;;;3.50;2.73;;;;;;;16.86;47.56;98765.25;7090059;27;20650;-79
2022/12/26 06:21:31;;;;;;;2.93;2.73;;;;;;;16.76;47.28;98751.44;7090141;27;20369;-79
2022/12/26 06:24:52;;;;;;;2.57;2.37;;;;;;;16.72;47.67;98755.75;7089914;27;20343;-79
2022/12/26 06:28:14;;;;;;;2.87;2.60;;;;;;;16.95;46.85;98752.88;7089944;27;20204;-79
2022/12/26 06:31:37;;;;;;;4.13;3.10;;;;;;;16.97;46.94;98763.50;7089944;27;20713;-78
2022/12/26 06:34:59;;;;;;;2.50;2.30;;;;;;;16.66;47.56;98748.56;7088283;27;20229;-77
2022/12/26 06:38:20;;;;;;;2.70;2.40;;;;;;;16.84;47.18;98767.41;7088868;27;20209;-77
2022/12/26 06:41:41;;;;;;;3.00;2.70;;;;;;;17.00;47.03;98761.13;7088269;27;20273;-77
2022/12/26 06:45:03;;;;;;;2.70;2.50;;;;;;;16.90;47.32;98757.41;7087401;27;20276;-77
2022/12/26 06:48:26;;;;;;;2.83;2.63;;;;;;;16.48;47.58;98718.84;7088183;27;20704;-77
2022/12/26 06:51:48;;;;;;;3.93;2.77;;;;;;;16.71;47.83;98747.81;7091719;27;20308;-77
2022/12/26 06:55:10;;;;;;;2.30;2.10;;;;;;;16.58;48.06;98764.47;7086417;27;20230;-77
2022/12/26 06:58:31;;;;;;;3.50;2.37;;;;;;;16.72;47.87;98771.25;7087088;27;20253;-77
2022/12/26 07:01:52;;;;;;;4.23;2.53;;;;;;;16.51;48.02;98756.44;7086935;27;20288;-77
2022/12/26 07:05:15;;;;;;;2.60;2.40;;;;;;;16.53;48.41;98761.63;7110895;27;20618;-77
2022/12/26 07:08:37;;;;;;;3.57;2.47;;;;;;;16.07;48.95;98710.09;7117322;27;20228;-77
2022/12/26 07:11:59;;;;;;;2.87;2.50;;;;;;;16.39;48.54;98763.81;7116362;27;20313;-77
2022/12/26 07:15:20;;;;;;;2.87;2.57;;;;;;;16.53;48.10;98751.59;7115401;27;20231;-77
2022/12/26 07:18:42;;;;;;;4.10;2.60;;;;;;;16.54;48.22;98775.00;7116581;27;20207;-77
2022/12/26 07:22:04;;;;;;;3.40;2.90;;;;;;;16.31;48.76;98772.34;7114992;27;20317;-77
2022/12/26 07:25:26;;;;;;;3.60;2.90;;;;;;;16.30;48.88;98765.25;7088734;27;20294;-77
2022/12/26 07:28:47;;;;;;;4.03;2.80;;;;;;;16.24;49.18;98776.28;7088846;27;20239;-78
2022/12/26 07:32:09;;;;;;;2.93;2.70;;;;;;;15.97;49.44;98726.22;7089025;27;20242;-77
2022/12/26 07:35:30;;;;;;;4.37;3.90;;;;;;;16.32;49.35;98775.88;7088651;27;20220;-77
2022/12/26 07:38:53;;;;;;;3.00;2.80;;;;;;;16.38;49.09;98772.19;7095394;27;20301;-77
2022/12/26 07:42:15;;;;;;;3.00;2.80;;;;;;;16.49;48.50;98772.19;7117591;27;20290;-77
2022/12/26 07:45:36;;;;;;;3.83;3.17;;;;;;;16.33;48.98;98767.47;7115980;27;20674;-77
2022/12/26 07:48:58;;;;;;;3.70;2.73;;;;;;;16.55;48.12;98776.66;7117149;27;20356;-77
2022/12/26 07:52:20;;;;;;;4.20;2.57;;;;;;;16.48;48.55;98783.31;7118297;27;20341;-79
2022/12/26 07:55:43;;;;;;;3.63;3.00;;;;;;;16.43;48.63;98794.09;7118876;27;20244;-79
2022/12/26 07:59:04;;;;;;;3.30;3.00;;;;;;;16.49;48.73;98776.78;7117985;27;20359;-78
2022/12/26 08:02:26;;;;;;;4.20;3.40;;;;;;;16.34;48.66;98766.41;7117684;27;20218;-78
2022/12/26 08:05:48;;;;;;;3.67;3.37;;;;;;;16.13;49.06;98768.97;7116154;27;20363;-77
2022/12/26 08:09:14;;;;;;;3.40;3.10;;;;;;;16.29;49.26;98766.31;7112372;27;20689;-78
2022/12/26 08:12:37;;;;;;;4.43;3.17;;;;;;;16.76;48.32;98796.91;7089481;27;20193;-78
2022/12/26 08:15:59;;;;;;;3.53;3.00;;;;;;;16.64;48.55;98768.94;7088802;27;20274;-80
2022/12/26 08:19:21;;;;;;;3.20;2.90;;;;;;;16.43;50.02;98792.22;7095816;27;20600;-78
2022/12/26 08:22:42;;;;;;;3.20;2.63;;;;;;;16.10;50.94;98796.66;7107137;27;20289;-74
2022/12/26 08:26:05;;;;;;;3.00;2.70;;;;;;;16.07;51.25;98788.97;7116303;27;20318;-77
2022/12/26 08:29:28;;;;;;;3.70;2.80;;;;;;;15.92;52.00;98805.00;7110867;27;20320;-78
2022/12/26 08:32:50;;;;;;;3.10;2.90;;;;;;;16.02;51.78;98797.03;7107852;27;20298;-76
2022/12/26 08:36:12;;;;;;;3.60;3.30;;;;;;;16.21;51.72;98815.66;7108024;27;20277;-79
2022/12/26 08:39:34;;;;;;;4.47;3.20;;;;;;;16.22;51.05;98813.78;7115303;27;20221;-77
2022/12/26 08:42:55;;;;;;;3.13;2.87;;;;;;;16.17;51.72;98825.38;7115728;27;20336;-77
2022/12/26 08:46:20;;;;;;;4.10;2.90;;;;;;;16.19;51.69;98830.56;7106651;27;20766;-76
2022/12/26 08:49:41;;;;;;;3.20;2.93;;;;;;;16.04;51.94;98814.75;7087847;27;20223;-78
2022/12/26 08:53:03;;;;;;;3.57;2.90;;;;;;;15.86;52.76;98824.97;7115039;27;20267;-79
2022/12/26 08:56:27;;;;;;;4.27;3.03;;;;;;;15.82;52.46;98834.66;7115791;27;20708;-79
2022/12/26 08:59:49;;;;;;;3.43;3.10;;;;;;;15.83;52.89;98844.47;7116040;27;20239;-77
2022/12/26 09:03:11;;;;;;;4.30;3.40;;;;;;;15.87;52.41;98835.59;7116326;27;20349;-79
2022/12/26 09:06:34;;;;;;;3.33;3.03;;;;;;;16.02;52.30;98862.28;7104998;27;20211;-78
2022/12/26 09:09:55;;;;;;;4.53;4.13;;;;;;;16.18;51.93;98862.41;7116351;27;20361;-76
2022/12/26 09:13:18;;;;;;;4.10;3.80;;;;;;;16.06;52.52;98882.53;7115778;27;20268;-77
2022/12/26 09:16:42;;;;;;;5.53;3.83;;;;;;;16.11;52.51;98877.19;7103628;27;20329;-77
2022/12/26 09:20:06;;;;;;;4.23;3.60;;;;;;;16.21;52.77;98904.63;7100044;27;20220;-81
2022/12/26 09:23:28;;;;;;;4.53;4.10;;;;;;;16.34;52.69;98902.47;7116641;27;20245;-80
2022/12/26 09:26:49;;;;;;;3.83;3.43;;;;;;;16.15;53.90;98922.72;7109699;27;20704;-77
2022/12/26 09:30:11;;;;;;;4.10;3.80;;;;;;;16.53;53.23;98930.41;7092445;27;20288;-76
2022/12/26 09:33:36;;;;;;;5.20;4.70;;;;;;;16.51;53.84;98918.94;7107417;27;20298;-74
2022/12/26 09:36:59;;;;;;;5.10;4.40;;;;;;;16.37;54.24;98931.94;7101838;27;20261;-77
2022/12/26 09:40:22;;;;;;;5.67;4.87;;;;;;;16.36;54.95;98910.41;7116011;27;20304;-77
2022/12/26 09:44:03;;;;;;;6.07;4.90;;;;;;;16.36;54.99;98924.00;7120166;27;20245;-78
2022/12/26 09:47:31;;;;;;;5.50;4.83;;;;;;;16.05;56.33;98930.63;7119809;27;20207;-77
2022/12/26 09:50:53;;;;;;;7.73;5.87;;;;;;;15.79;57.81;98942.00;7121176;27;20246;-76
2022/12/26 09:54:21;;;;;;;5.63;4.83;;;;;;;16.01;56.79;98939.53;7122736;27;20203;-78
2022/12/26 09:57:47;;;;;;;7.00;4.33;;;;;;;15.61;57.71;98950.25;7109995;27;20631;-78
2022/12/26 10:01:11;;;;;;;4.40;4.00;;;;;;;15.25;58.79;98946.78;7124312;27;20304;-74
2022/12/26 10:04:32;;;;;;;6.23;5.20;;;;;;;14.82;61.66;98957.00;7113587;27;20221;-76
2022/12/26 10:07:57;;;;;;;10.80;5.73;;;;;;;14.32;62.95;98961.78;7111516;27;20277;-76
2022/12/26 10:11:25;;;;;;;9.63;6.60;;;;;;;14.87;61.94;98979.69;7122512;27;20220;-78
2022/12/26 10:14:51;;;;;;;6.37;5.40;;;;;;;14.69;62.73;98995.19;7116193;27;20223;-77
2022/12/26 10:18:24;;;;;;;6.83;5.77;;;;;;;14.78;63.26;99007.38;7113500;27;20290;-77
2022/12/26 10:21:51;;;;;;;8.03;7.00;;;;;;;15.37;61.20;98991.16;7116048;27;20347;-76
2022/12/26 10:25:16;;;;;;;11.57;6.50;;;;;;;15.40;61.79;98996.97;7099682;27;20289;-76
2022/12/26 10:28:42;;;;;;;7.47;6.63;;;;;;;15.36;61.49;99003.09;7116761;27;20319;-76
2022/12/26 10:32:06;;;;;;;6.87;6.17;;;;;;;15.94;59.85;98998.63;7094080;27;20608;-75
2022/12/26 10:35:31;;;;;;;6.37;5.63;;;;;;;16.02;59.82;98992.84;7097568;27;20312;-75
2022/12/26 10:38:53;;;;;;;7.80;6.07;;;;;;;16.11;59.11;98994.97;7117276;27;20256;-75
2022/12/26 10:42:19;;;;;;;11.57;6.90;;;;;;;15.98;58.81;98978.88;7118831;27;20192;-75
2022/12/26 10:45:47;;;;;;;7.30;6.17;;;;;;;16.06;58.90;98991.31;7118337;27;20254;-75
2022/12/26 10:49:10;;;;;;;10.77;6.37;;;;;;;15.42;61.00;99002.16;7105405;27;20380;-76
2022/12/26 10:52:33;;;;;;;10.27;5.63;;;;;;;15.70;60.57;98995.03;7092018;27;20263;-75
2022/12/26 10:55:55;;;;;;;7.63;5.27;;;;;;;15.84;59.39;98987.50;7118099;27;20228;-77
2022/12/26 10:59:20;;;;;;;5.87;5.27;;;;;;;15.36;61.77;98998.50;7100242;27;20228;-75
2022/12/26 11:02:43;;;;;;;7.40;6.37;;;;;;;15.50;61.22;99002.66;7108095;27;20288;-74
2022/12/26 11:06:06;;;;;;;5.17;4.27;;;;;;;15.15;62.12;99003.56;7108434;27;20239;-75
2022/12/26 11:09:35;;;;;;;4.70;4.13;;;;;;;14.66;63.89;98992.91;7109050;27;20216;-76
2022/12/26 11:13:00;;;;;;;3.83;3.53;;;;;;;14.30;65.07;98972.03;7119380;27;20196;-82
2022/12/26 11:16:27;;;;;;;5.47;4.43;;;;;;;15.15;63.15;98977.22;7117448;27;20718;-79
2022/12/26 11:20:10;;;;;;;5.43;4.47;;;;;;;15.33;61.91;99004.38;7120169;27;20242;-77
2022/12/26 11:23:31;;;;;;;4.33;3.90;;;;;;;14.62;64.42;98978.16;7099904;27;20203;-77
2022/12/26 11:26:55;;;;;;;4.53;4.13;;;;;;;15.64;62.00;98966.06;7110054;27;20203;-77
2022/12/26 11:30:24;;;;;;;4.17;3.87;;;;;;;16.03;60.08;98961.84;7113649;27;20276;-77
2022/12/26 11:33:46;;;;;;;3.33;3.03;;;;;;;16.25;58.81;98935.72;7106773;27;20283;-75
2022/12/26 11:37:21;;;;;;;3.93;3.30;;;;;;;15.41;61.40;98935.31;7105663;27;20233;-80
2022/12/26 11:41:30;;;;;;;5.53;3.00;;;;;;;15.65;60.69;98947.88;7100288;27;20264;-76
2022/12/26 11:44:31;;;;;;;3.57;3.27;;;;;;;16.23;59.16;98970.50;7114312;27;20207;-78
2022/12/26 11:47:53;;;;;;;4.53;4.00;;;;;;;16.25;59.56;98990.13;7116154;27;20332;-78
2022/12/26 11:51:15;;;;;;;4.80;3.10;;;;;;;16.05;58.62;98990.47;7111141;27;20299;-79
2022/12/26 11:54:48;;;;;;;14.40;6.90;;;;;;;16.08;58.68;98979.13;7102887;27;20213;-78
2022/12/26 11:58:19;;;;;;;4.00;3.33;;;;;;;15.95;58.45;98989.41;7101512;27;20291;-76
2022/12/26 12:01:41;;;;;;;3.40;3.00;;;;;;;16.24;58.09;98955.84;7090384;27;20314;-75
2022/12/26 12:05:14;;;;;;;4.10;3.70;;;;;;;16.13;58.35;98953.94;7115502;27;20750;-81
2022/12/26 12:08:43;;;;;;;4.13;3.20;;;;;;;16.16;57.97;98926.28;7089744;27;20215;-81
2022/12/26 12:12:13;;;;;;;4.73;3.30;;;;;;;16.17;58.31;98950.50;7088073;27;20322;-79
2022/12/26 12:15:40;;;;;;;4.87;4.17;;;;;;;16.29;58.31;98935.00;7105357;27;20299;-78
2022/12/26 12:19:14;;;;;;;6.07;4.33;;;;;;;15.89;59.93;98952.28;7104172;27;20330;-79
2022/12/26 12:23:00;;;;;;;4.20;3.80;;;;;;;15.85;60.08;98951.94;7088384;27;20326;-78
2022/12/26 12:26:28;;;;;;;5.13;4.40;;;;;;;15.93;60.28;98964.34;7105019;27;20246;-78
2022/12/26 12:30:06;;;;;;;5.20;3.90;;;;;;;15.47;60.94;98927.06;7096963;27;20233;-78
2022/12/26 12:33:36;;;;;;;7.07;4.13;;;;;;;15.81;60.37;98975.19;7111233;27;20242;-79
2022/12/26 12:37:07;;;;;;;4.57;3.57;;;;;;;15.58;60.18;98941.72;7090247;27;20306;-78
2022/12/26 12:40:32;;;;;;;5.83;3.40;;;;;;;15.64;60.36;98943.50;7095575;27;20884;-78
2022/12/26 12:43:56;;;;;;;4.17;3.77;;;;;;;16.00;59.22;98933.28;7087658;27;20260;-80
2022/12/26 12:47:24;;;;;;;4.00;3.60;;;;;;;15.93;59.84;98951.56;7091746;27;20288;-80
2022/12/26 12:50:51;;;;;;;4.50;4.10;;;;;;;16.07;59.89;98954.88;7088382;27;20312;-78
2022/12/26 12:54:45;;;;;;;5.03;3.97;;;;;;;16.12;59.72;98953.13;7111269;27;20711;-80
2022/12/26 12:58:11;;;;;;;4.37;3.87;;;;;;;16.06;60.07;98954.09;7115790;27;20360;-79
2022/12/26 13:01:36;;;;;;;3.70;3.40;;;;;;;15.24;61.67;98948.69;7116848;27;20247;-79
2022/12/26 13:05:08;;;;;;;3.60;3.30;;;;;;;16.02;59.81;98957.50;7115035;27;20347;-80
2022/12/26 13:08:35;;;;;;;4.27;3.30;;;;;;;15.90;59.50;98952.06;7087517;28;20252;-79
2022/12/26 13:12:00;;;;;;;5.43;3.50;;;;;;;15.94;59.45;98961.41;7091643;27;20306;-80
2022/12/26 13:15:28;;;;;;;3.90;3.33;;;;;;;15.30;59.99;98955.09;7117288;27;20216;-82
2022/12/26 13:18:52;;;;;;;2.40;2.20;;;;;;;15.16;59.82;98951.72;7116879;27;20281;-80
2022/12/26 13:22:23;;;;;;;2.63;2.43;;;;;;;15.49;59.16;98956.69;7117402;27;20262;-79
2022/12/26 13:25:47;;;;;;;2.13;1.97;;;;;;;15.24;59.00;98934.28;7086878;27;20660;-78
2022/12/26 13:29:12;;;;;;;2.60;2.40;;;;;;;14.70;60.51;98918.13;7086625;27;20231;-79
2022/12/26 13:32:33;;;;;;;2.50;2.13;;;;;;;15.34;58.91;98929.97;7086768;27;20209;-78
2022/12/26 13:35:57;;;;;;;3.20;2.90;;;;;;;15.68;58.25;98937.38;7109020;27;20228;-79
2022/12/26 13:39:40;;;;;;;3.93;2.70;;;;;;;15.93;57.34;98918.94;7115939;27;20246;-79
2022/12/26 13:46:55;;;;;;;2.60;2.10;;;;;;;15.76;57.44;98923.41;7107739;27;20203;-77
2022/12/26 13:50:48;;;;;;;2.40;2.20;;;;;;;16.13;56.47;98930.31;7090178;27;20361;-78
2022/12/26 13:54:12;;;;;;;2.77;2.20;;;;;;;16.16;56.17;98920.84;7087079;28;20256;-78
2022/12/26 13:57:41;;;;;;;3.00;2.70;;;;;;;16.02;56.34;98901.22;7086127;27;20227;-78
2022/12/26 14:01:07;;;;;;;2.70;2.50;;;;;;;16.08;56.59;98940.22;7086763;27;20266;-79
2022/12/26 14:04:43;;;;;;;4.83;3.03;;;;;;;15.92;57.04;98940.94;7086736;27;20295;-78
2022/12/26 14:08:10;;;;;;;3.93;3.40;;;;;;;16.21;56.16;98938.09;7085110;27;20200;-77
2022/12/26 14:11:43;;;;;;;3.53;2.27;;;;;;;16.06;56.35;98951.34;7089994;27;20764;-77
2022/12/26 14:15:23;;;;;;;3.20;2.90;;;;;;;16.07;56.25;98930.41;7097268;27;20290;-78
2022/12/26 14:18:49;;;;;;;2.37;2.17;;;;;;;16.31;55.68;98926.59;7095750;27;20245;-77
2022/12/26 14:22:15;;;;;;;2.30;2.10;;;;;;;16.02;56.62;98933.00;7110031;27;20532;-77
2022/12/26 14:25:48;;;;;;;1.80;1.70;;;;;;;15.82;56.87;98913.50;7100337;27;20668;-77
2022/12/26 14:29:19;;;;;;;2.63;2.40;;;;;;;16.07;56.90;98939.41;7089986;27;20232;-78
2022/12/26 14:32:50;;;;;;;2.07;1.93;;;;;;;15.96;56.54;98925.78;7089924;27;20854;-77
2022/12/26 14:36:22;;;;;;;2.10;2.00;;;;;;;16.00;56.33;98903.34;7115390;27;20298;-76
2022/12/26 14:39:51;;;;;;;2.47;2.27;;;;;;;16.11;56.49;98912.56;7117293;27;20227;-77
2022/12/26 14:43:31;;;;;;;3.00;2.80;;;;;;;16.15;56.05;98906.41;7118777;27;20204;-77
2022/12/26 14:46:57;;;;;;;2.40;2.20;;;;;;;16.35;55.65;98919.63;7118022;27;20247;-77
2022/12/26 14:50:38;;;;;;;1.90;1.80;;;;;;;16.25;55.62;98914.78;7099124;27;20277;-77
2022/12/26 14:54:18;;;;;;;2.33;2.10;;;;;;;16.19;55.77;98933.94;7089558;27;20294;-77
2022/12/26 14:57:49;;;;;;;3.10;2.90;;;;;;;15.94;56.73;98926.06;7101200;27;20231;-77
2022/12/26 15:01:48;;;;;;;1.90;1.80;;;;;;;15.95;56.71;98924.16;7113669;27;20304;-77
2022/12/26 15:05:11;;;;;;;1.90;1.80;;;;;;;15.94;56.53;98908.91;7114821;27;20274;-82
2022/12/26 15:08:53;;;;;;;1.70;1.60;;;;;;;16.09;55.73;98912.78;7116776;27;20287;-77
2022/12/26 15:12:38;;;;;;;1.93;1.83;;;;;;;16.26;55.22;98915.59;7118580;27;20571;-77
2022/12/26 15:16:12;;;;;;;2.83;2.37;;;;;;;16.21;55.64;98912.78;7117130;27;20231;-76
2022/12/26 15:19:58;;;;;;;2.73;2.53;;;;;;;16.15;55.90;98897.44;7107160;27;20314;-77
2022/12/26 15:23:42;;;;;;;2.40;2.20;;;;;;;15.84;56.00;98882.31;7116489;27;20336;-75
2022/12/26 15:27:33;;;;;;;3.20;2.80;;;;;;;16.01;55.81;98896.00;7100472;27;20199;-78
2022/12/26 15:31:11;;;;;;;2.80;2.50;;;;;;;15.49;56.97;98889.59;7111389;27;20317;-77
2022/12/26 15:34:53;;;;;;;2.90;2.00;;;;;;;15.53;57.15;98900.84;7117354;27;20193;-77
2022/12/26 15:38:23;;;;;;;3.53;3.17;;;;;;;15.90;56.20;98899.53;7093560;27;20290;-77
2022/12/26 15:41:48;;;;;;;2.00;1.90;;;;;;;15.22;57.53;98918.19;7095484;27;20360;-78
2022/12/26 15:45:33;;;;;;;2.53;2.00;;;;;;;15.58;56.61;98918.06;7115654;27;20702;-77
2022/12/26 15:49:19;;;;;;;2.17;2.03;;;;;;;15.83;56.11;98913.28;7114671;27;20187;-77
2022/12/26 15:52:46;;;;;;;2.63;2.10;;;;;;;16.06;55.27;98932.31;7114365;27;20245;-77
2022/12/26 15:56:39;;;;;;;2.33;2.13;;;;;;;15.48;56.52;98931.44;7114015;27;20215;-77
2022/12/26 16:00:15;;;;;;;2.30;2.17;;;;;;;15.41;56.60;98898.13;7113129;27;20219;-77
2022/12/26 16:03:41;;;;;;;1.80;1.70;;;;;;;15.74;55.80;98914.69;7115268;27;20259;-78
2022/12/26 16:07:08;;;;;;;1.70;1.60;;;;;;;15.76;55.10;98917.16;7113508;27;20199;-76
2022/12/26 16:10:32;;;;;;;2.00;1.90;;;;;;;15.65;56.01;98921.53;7114569;27;20226;-77
2022/12/26 16:13:56;;;;;;;1.80;1.70;;;;;;;15.64;55.44;98932.63;7114818;27;20202;-77
2022/12/26 16:17:22;;;;;;;2.30;1.97;;;;;;;15.79;55.05;98905.81;7111906;27;20231;-76
2022/12/26 16:24:24;;;;;;;1.70;1.60;;;;;;;15.95;54.69;98932.31;7085531;27;20182;-77
2022/12/26 16:27:45;;;;;;;1.70;1.60;;;;;;;15.58;55.05;98899.06;7085439;27;20291;-76
2022/12/26 16:31:07;;;;;;;1.87;1.77;;;;;;;16.07;54.32;98925.81;7085430;27;20299;-77
2022/12/26 16:34:33;;;;;;;1.70;1.60;;;;;;;15.86;54.81;98925.56;7085021;27;20205;-76
2022/12/26 16:37:57;;;;;;;1.80;1.70;;;;;;;15.13;56.51;98930.47;7085548;27;20258;-77
2022/12/26 16:41:20;;;;;;;2.00;1.80;;;;;;;15.62;54.86;98902.16;7085438;27;20256;-77
2022/12/26 16:44:43;;;;;;;1.90;1.80;;;;;;;15.90;55.21;98932.19;7085541;27;20237;-78
2022/12/26 16:48:06;;;;;;;2.97;2.67;;;;;;;16.16;54.40;98927.09;7111062;27;20204;-77
2022/12/26 16:51:36;;;;;;;2.63;1.80;;;;;;;15.64;55.71;98935.34;7106354;27;20244;-79
2022/12/26 16:54:58;;;;;;;2.40;1.90;;;;;;;15.90;55.33;98937.63;7114538;27;20196;-78
2022/12/26 16:58:23;;;;;;;2.50;2.30;;;;;;;16.10;54.35;98936.19;7115224;27;20259;-81
2022/12/26 17:01:47;;;;;;;2.97;1.90;;;;;;;15.79;55.03;98944.72;7094178;27;20799;-77
2022/12/26 17:05:17;;;;;;;2.67;2.27;;;;;;;15.64;56.14;98946.22;7098301;27;20263;-79
2022/12/26 17:08:43;;;;;;;11.47;6.97;;;;;;;15.82;55.80;98941.50;7085310;27;20284;-77
2022/12/26 17:12:07;;;;;;;6.63;5.93;;;;;;;16.07;55.13;98927.69;7085805;27;20771;-77
2022/12/26 17:15:31;;;;;;;2.80;2.60;;;;;;;16.14;54.42;98940.13;7102099;27;20687;-78
2022/12/26 17:18:54;;;;;;;2.43;2.10;;;;;;;15.69;55.65;98946.34;7107352;27;20300;-79
2022/12/26 17:22:21;;;;;;;9.37;4.60;;;;;;;15.71;55.73;98931.47;7113104;27;20207;-78
2022/12/26 17:25:50;;;;;;;3.00;2.70;;;;;;;15.68;55.12;98934.66;7114020;27;20683;-78
2022/12/26 17:29:53;;;;;;;2.37;2.17;;;;;;;15.31;56.06;98954.00;7116060;27;20230;-78
2022/12/26 17:33:17;;;;;;;2.00;1.80;;;;;;;15.01;57.15;98940.47;7102897;27;20338;-78
2022/12/26 17:36:38;;;;;;;1.90;1.80;;;;;;;15.07;56.75;98947.69;7087591;27;20228;-78
2022/12/26 17:40:07;;;;;;;2.00;1.90;;;;;;;15.45;56.31;98953.63;7085583;28;20638;-78
2022/12/26 17:43:32;;;;;;;2.13;2.03;;;;;;;15.71;56.13;98955.94;7085897;27;20191;-78
2022/12/26 17:46:53;;;;;;;2.33;2.10;;;;;;;15.78;55.28;98951.22;7090462;27;20289;-78
2022/12/26 17:50:15;;;;;;;2.10;2.00;;;;;;;15.88;55.29;98950.63;7090696;27;20230;-77
2022/12/26 17:53:38;;;;;;;2.33;2.13;;;;;;;15.81;55.78;98966.22;7094032;27;20321;-77
2022/12/26 17:56:59;;;;;;;2.10;1.90;;;;;;;15.62;56.71;98959.25;7089418;27;20280;-77
2022/12/26 18:00:24;;;;;;;1.90;1.80;;;;;;;15.24;57.59;98967.72;7090001;27;20256;-77
2022/12/26 18:03:46;;;;;;;4.00;3.30;;;;;;;15.34;58.31;98999.78;7090673;27;20291;-76
2022/12/26 18:07:11;;;;;;;3.57;3.27;;;;;;;14.79;60.52;98990.88;7088749;27;20287;-77
2022/12/26 18:10:35;;;;;;;2.00;1.90;;;;;;;14.50;61.33;99026.03;7090125;27;20339;-76
2022/12/26 18:13:56;;;;;;;3.83;2.87;;;;;;;14.33;62.10;99033.13;7089815;27;20793;-76
2022/12/26 18:17:19;;;;;;;4.70;3.37;;;;;;;14.81;61.68;99039.50;7088609;27;20225;-77